Main page
METAR-TAF:

METAR-TAF

Airports :

Limoges – Bellegarde Airport

Limoges, France

latitude: 45-52N, longitude: 001-11E, elevation: 396 m

Current weather observation

The report was made 20 minutes ago, at 20:00 UTC
Wind 4 kt from the West/Northwest
Temperature 17°C
Humidity 72%
Pressure 1018 hPa
Visibility 10 km or more
no clouds below 1500 m and no cumulonimbus

METAR: LFBL 282000Z AUTO 29004KT CAVOK 17/12 Q1018 NOSIG

Time: 22:20 (20:20 UTC)

Forecast

The report was made 3 hours and 20 minutes ago, at 17:00 UTC
Forecast valid from 28 at 18 UTC to 29 at 18 UTC
Wind 10 kt from the West
Visibility 10 km or more
Scattered clouds at a height of 3500 ft
Broken clouds at a height of 5000 ft
Becoming
from 29 at 02 UTC to 29 at 04 UTC
Wind 2 kt from variable directions
Visibility 10 km or more
no clouds below 1500 m and no cumulonimbus
Becoming
from 29 at 08 UTC to 29 at 10 UTC
Scattered clouds at a height of 3000 ft

TAF: LFBL 281700Z 2818/2918 26010KT 9999 SCT035 BKN050 BECMG 2902/2904 VRB02KT CAVOK BECMG 2908/2910 SCT030

Weather observations and forecasts of more than 4000 airports (METAR and TAF reports).

The available stations are represented by yellow and red dots on the map.

Hover mouse over dot to see the name of the station.

Then click to see weather observations and forecasts.

To change the map : click on the green buttons with a black cross to zoom in, on the green button with a dash to zoom out, or on the green arrows for adjacent maps.


METAR-TAF: